sensor_id;sensor_type;location;lat;lon;timestamp;P1;durP1;ratioP1;P2;durP2;ratioP2
29196;SDS011;62796;42.654;23.316;2024-03-02T00:02:24;39.30;;;21.85;;
29196;SDS011;62796;42.654;23.316;2024-03-02T00:04:50;41.85;;;22.70;;
29196;SDS011;62796;42.654;23.316;2024-03-02T00:07:16;42.85;;;23.50;;
29196;SDS011;62796;42.654;23.316;2024-03-02T00:09:42;44.20;;;22.73;;
29196;SDS011;62796;42.654;23.316;2024-03-02T00:12:07;38.55;;;22.30;;
29196;SDS011;62796;42.654;23.316;2024-03-02T00:14:33;40.67;;;21.58;;
29196;SDS011;62796;42.654;23.316;2024-03-02T00:16:58;34.83;;;20.60;;
29196;SDS011;62796;42.654;23.316;2024-03-02T00:19:24;38.33;;;20.00;;
29196;SDS011;62796;42.654;23.316;2024-03-02T00:21:50;37.78;;;21.98;;
29196;SDS011;62796;42.654;23.316;2024-03-02T00:24:26;36.58;;;21.23;;
29196;SDS011;62796;42.654;23.316;2024-03-02T00:26:59;38.40;;;21.35;;
29196;SDS011;62796;42.654;23.316;2024-03-02T00:29:24;40.47;;;21.58;;
29196;SDS011;62796;42.654;23.316;2024-03-02T00:31:50;38.13;;;20.60;;
29196;SDS011;62796;42.654;23.316;2024-03-02T00:34:16;40.80;;;22.25;;
29196;SDS011;62796;42.654;23.316;2024-03-02T00:36:42;35.78;;;20.52;;
29196;SDS011;62796;42.654;23.316;2024-03-02T00:39:08;35.50;;;20.15;;
29196;SDS011;62796;42.654;23.316;2024-03-02T00:41:33;37.15;;;20.30;;
29196;SDS011;62796;42.654;23.316;2024-03-02T00:46:27;38.97;;;20.98;;
29196;SDS011;62796;42.654;23.316;2024-03-02T00:48:59;39.15;;;21.00;;
29196;SDS011;62796;42.654;23.316;2024-03-02T00:51:26;35.70;;;20.30;;
29196;SDS011;62796;42.654;23.316;2024-03-02T00:53:54;37.63;;;21.30;;
29196;SDS011;62796;42.654;23.316;2024-03-02T00:56:25;32.65;;;19.33;;
29196;SDS011;62796;42.654;23.316;2024-03-02T00:58:51;36.53;;;20.30;;
29196;SDS011;62796;42.654;23.316;2024-03-02T01:01:17;34.13;;;19.08;;
29196;SDS011;62796;42.654;23.316;2024-03-02T01:03:44;32.78;;;19.67;;
29196;SDS011;62796;42.654;23.316;2024-03-02T01:06:10;35.92;;;19.23;;
29196;SDS011;62796;42.654;23.316;2024-03-02T01:08:36;32.85;;;18.38;;
29196;SDS011;62796;42.654;23.316;2024-03-02T01:11:02;29.83;;;17.02;;
29196;SDS011;62796;42.654;23.316;2024-03-02T01:13:28;28.67;;;16.27;;
29196;SDS011;62796;42.654;23.316;2024-03-02T01:15:54;29.35;;;17.30;;
29196;SDS011;62796;42.654;23.316;2024-03-02T01:18:19;30.00;;;17.55;;
29196;SDS011;62796;42.654;23.316;2024-03-02T01:20:45;40.17;;;17.15;;
29196;SDS011;62796;42.654;23.316;2024-03-02T01:23:10;32.38;;;17.38;;
29196;SDS011;62796;42.654;23.316;2024-03-02T01:25:36;30.70;;;17.60;;
29196;SDS011;62796;42.654;23.316;2024-03-02T01:28:02;29.67;;;17.17;;
29196;SDS011;62796;42.654;23.316;2024-03-02T01:30:27;31.42;;;17.90;;
29196;SDS011;62796;42.654;23.316;2024-03-02T01:32:53;31.10;;;16.42;;
29196;SDS011;62796;42.654;23.316;2024-03-02T01:35:18;28.85;;;17.35;;
29196;SDS011;62796;42.654;23.316;2024-03-02T01:37:44;29.25;;;17.58;;
29196;SDS011;62796;42.654;23.316;2024-03-02T01:40:09;30.33;;;16.83;;
29196;SDS011;62796;42.654;23.316;2024-03-02T01:42:36;35.10;;;17.95;;
29196;SDS011;62796;42.654;23.316;2024-03-02T01:45:04;33.05;;;18.45;;
29196;SDS011;62796;42.654;23.316;2024-03-02T01:47:30;33.88;;;17.83;;
29196;SDS011;62796;42.654;23.316;2024-03-02T01:49:57;33.17;;;18.05;;
29196;SDS011;62796;42.654;23.316;2024-03-02T01:52:23;34.50;;;18.25;;
29196;SDS011;62796;42.654;23.316;2024-03-02T01:54:49;32.63;;;18.45;;
29196;SDS011;62796;42.654;23.316;2024-03-02T01:57:14;33.50;;;19.63;;
29196;SDS011;62796;42.654;23.316;2024-03-02T01:59:39;32.53;;;18.10;;
29196;SDS011;62796;42.654;23.316;2024-03-02T02:02:05;34.40;;;18.40;;
29196;SDS011;62796;42.654;23.316;2024-03-02T02:04:30;32.70;;;18.25;;
29196;SDS011;62796;42.654;23.316;2024-03-02T02:06:56;34.38;;;19.83;;
29196;SDS011;62796;42.654;23.316;2024-03-02T02:09:22;32.45;;;19.10;;
29196;SDS011;62796;42.654;23.316;2024-03-02T02:11:47;33.40;;;18.85;;
29196;SDS011;62796;42.654;23.316;2024-03-02T02:14:13;33.90;;;19.45;;
29196;SDS011;62796;42.654;23.316;2024-03-02T02:16:38;38.00;;;20.08;;
29196;SDS011;62796;42.654;23.316;2024-03-02T02:19:04;33.30;;;19.35;;
29196;SDS011;62796;42.654;23.316;2024-03-02T02:21:29;36.58;;;20.08;;
29196;SDS011;62796;42.654;23.316;2024-03-02T02:23:54;33.80;;;19.58;;
29196;SDS011;62796;42.654;23.316;2024-03-02T02:26:20;33.22;;;19.83;;
29196;SDS011;62796;42.654;23.316;2024-03-02T02:28:45;36.50;;;20.95;;
29196;SDS011;62796;42.654;23.316;2024-03-02T02:31:13;34.95;;;19.08;;
29196;SDS011;62796;42.654;23.316;2024-03-02T02:33:39;35.83;;;20.45;;
29196;SDS011;62796;42.654;23.316;2024-03-02T02:36:05;31.92;;;19.33;;
29196;SDS011;62796;42.654;23.316;2024-03-02T02:38:32;33.47;;;19.10;;
29196;SDS011;62796;42.654;23.316;2024-03-02T02:41:00;35.03;;;19.85;;
29196;SDS011;62796;42.654;23.316;2024-03-02T02:43:26;36.35;;;19.95;;
29196;SDS011;62796;42.654;23.316;2024-03-02T02:45:51;34.85;;;20.10;;
29196;SDS011;62796;42.654;23.316;2024-03-02T02:48:16;38.33;;;20.67;;
29196;SDS011;62796;42.654;23.316;2024-03-02T02:50:42;36.47;;;20.35;;
29196;SDS011;62796;42.654;23.316;2024-03-02T02:53:07;33.83;;;20.77;;
29196;SDS011;62796;42.654;23.316;2024-03-02T02:55:35;34.90;;;21.42;;
29196;SDS011;62796;42.654;23.316;2024-03-02T02:58:05;35.63;;;19.60;;
29196;SDS011;62796;42.654;23.316;2024-03-02T03:00:33;39.28;;;22.20;;
29196;SDS011;62796;42.654;23.316;2024-03-02T03:02:59;35.65;;;20.50;;
29196;SDS011;62796;42.654;23.316;2024-03-02T03:05:24;38.38;;;22.38;;
29196;SDS011;62796;42.654;23.316;2024-03-02T03:07:49;39.70;;;22.10;;
29196;SDS011;62796;42.654;23.316;2024-03-02T03:10:15;45.28;;;23.60;;
29196;SDS011;62796;42.654;23.316;2024-03-02T03:12:41;38.65;;;21.75;;
29196;SDS011;62796;42.654;23.316;2024-03-02T03:15:08;37.15;;;21.70;;
29196;SDS011;62796;42.654;23.316;2024-03-02T03:17:34;38.92;;;22.90;;
29196;SDS011;62796;42.654;23.316;2024-03-02T03:20:00;36.20;;;20.85;;
29196;SDS011;62796;42.654;23.316;2024-03-02T03:22:26;39.67;;;21.92;;
29196;SDS011;62796;42.654;23.316;2024-03-02T03:24:52;40.70;;;23.73;;
29196;SDS011;62796;42.654;23.316;2024-03-02T03:27:18;44.65;;;23.50;;
29196;SDS011;62796;42.654;23.316;2024-03-02T03:29:44;40.40;;;23.05;;
29196;SDS011;62796;42.654;23.316;2024-03-02T03:32:10;39.20;;;22.52;;
29196;SDS011;62796;42.654;23.316;2024-03-02T03:34:35;41.00;;;24.05;;
29196;SDS011;62796;42.654;23.316;2024-03-02T03:37:01;40.53;;;23.58;;
29196;SDS011;62796;42.654;23.316;2024-03-02T03:39:27;47.97;;;24.13;;
29196;SDS011;62796;42.654;23.316;2024-03-02T03:41:53;42.42;;;24.13;;
29196;SDS011;62796;42.654;23.316;2024-03-02T03:44:19;38.35;;;22.55;;
29196;SDS011;62796;42.654;23.316;2024-03-02T03:46:45;42.72;;;24.88;;
29196;SDS011;62796;42.654;23.316;2024-03-02T03:49:10;45.70;;;24.20;;
29196;SDS011;62796;42.654;23.316;2024-03-02T03:51:35;46.95;;;25.17;;
29196;SDS011;62796;42.654;23.316;2024-03-02T03:54:01;46.60;;;25.17;;
29196;SDS011;62796;42.654;23.316;2024-03-02T03:56:26;43.72;;;24.13;;
29196;SDS011;62796;42.654;23.316;2024-03-02T03:58:52;43.22;;;25.60;;
29196;SDS011;62796;42.654;23.316;2024-03-02T04:01:17;45.35;;;26.90;;
29196;SDS011;62796;42.654;23.316;2024-03-02T04:03:43;49.45;;;27.63;;
29196;SDS011;62796;42.654;23.316;2024-03-02T04:06:08;56.50;;;29.92;;
29196;SDS011;62796;42.654;23.316;2024-03-02T04:08:34;51.08;;;28.90;;
29196;SDS011;62796;42.654;23.316;2024-03-02T04:10:59;47.92;;;28.20;;
29196;SDS011;62796;42.654;23.316;2024-03-02T04:13:25;50.13;;;28.38;;
29196;SDS011;62796;42.654;23.316;2024-03-02T04:15:50;52.38;;;29.05;;
29196;SDS011;62796;42.654;23.316;2024-03-02T04:18:15;55.33;;;29.23;;
29196;SDS011;62796;42.654;23.316;2024-03-02T04:20:41;54.10;;;30.08;;
29196;SDS011;62796;42.654;23.316;2024-03-02T04:23:07;50.78;;;28.00;;
29196;SDS011;62796;42.654;23.316;2024-03-02T04:25:33;53.05;;;28.33;;
29196;SDS011;62796;42.654;23.316;2024-03-02T04:27:58;51.45;;;28.25;;
29196;SDS011;62796;42.654;23.316;2024-03-02T04:30:26;53.03;;;28.88;;
29196;SDS011;62796;42.654;23.316;2024-03-02T04:32:52;52.28;;;28.98;;
29196;SDS011;62796;42.654;23.316;2024-03-02T04:35:17;54.92;;;31.17;;
29196;SDS011;62796;42.654;23.316;2024-03-02T04:37:43;55.85;;;29.77;;
29196;SDS011;62796;42.654;23.316;2024-03-02T04:40:08;57.25;;;30.13;;
29196;SDS011;62796;42.654;23.316;2024-03-02T04:42:35;57.42;;;29.83;;
29196;SDS011;62796;42.654;23.316;2024-03-02T04:45:02;53.53;;;30.67;;
29196;SDS011;62796;42.654;23.316;2024-03-02T04:47:28;57.60;;;31.42;;
29196;SDS011;62796;42.654;23.316;2024-03-02T04:49:53;56.08;;;31.00;;
29196;SDS011;62796;42.654;23.316;2024-03-02T04:52:18;63.22;;;35.72;;
29196;SDS011;62796;42.654;23.316;2024-03-02T04:54:44;57.75;;;33.42;;
29196;SDS011;62796;42.654;23.316;2024-03-02T04:57:28;59.28;;;32.10;;
29196;SDS011;62796;42.654;23.316;2024-03-02T04:59:53;56.65;;;30.98;;
29196;SDS011;62796;42.654;23.316;2024-03-02T05:02:19;58.20;;;32.85;;
29196;SDS011;62796;42.654;23.316;2024-03-02T05:04:44;61.85;;;32.88;;
29196;SDS011;62796;42.654;23.316;2024-03-02T05:07:09;59.85;;;32.20;;
29196;SDS011;62796;42.654;23.316;2024-03-02T05:09:35;61.92;;;33.00;;
29196;SDS011;62796;42.654;23.316;2024-03-02T05:12:00;56.92;;;31.13;;
29196;SDS011;62796;42.654;23.316;2024-03-02T05:14:45;60.20;;;30.77;;
29196;SDS011;62796;42.654;23.316;2024-03-02T05:17:11;58.22;;;32.25;;
29196;SDS011;62796;42.654;23.316;2024-03-02T05:19:36;55.60;;;30.45;;
29196;SDS011;62796;42.654;23.316;2024-03-02T05:22:01;55.65;;;30.63;;
29196;SDS011;62796;42.654;23.316;2024-03-02T05:24:28;58.08;;;31.30;;
29196;SDS011;62796;42.654;23.316;2024-03-02T05:26:54;52.47;;;30.10;;
29196;SDS011;62796;42.654;23.316;2024-03-02T05:29:19;55.65;;;31.63;;
29196;SDS011;62796;42.654;23.316;2024-03-02T05:31:45;58.00;;;30.73;;
29196;SDS011;62796;42.654;23.316;2024-03-02T05:34:11;62.30;;;32.60;;
29196;SDS011;62796;42.654;23.316;2024-03-02T05:36:36;62.55;;;33.88;;
29196;SDS011;62796;42.654;23.316;2024-03-02T05:39:04;62.63;;;33.92;;
29196;SDS011;62796;42.654;23.316;2024-03-02T05:41:31;60.60;;;33.45;;
29196;SDS011;62796;42.654;23.316;2024-03-02T05:43:56;55.58;;;32.90;;
29196;SDS011;62796;42.654;23.316;2024-03-02T05:46:22;57.63;;;34.22;;
29196;SDS011;62796;42.654;23.316;2024-03-02T05:48:47;61.70;;;34.25;;
29196;SDS011;62796;42.654;23.316;2024-03-02T05:51:13;60.08;;;34.15;;
29196;SDS011;62796;42.654;23.316;2024-03-02T05:53:38;57.78;;;32.63;;
29196;SDS011;62796;42.654;23.316;2024-03-02T05:56:04;66.72;;;34.88;;
29196;SDS011;62796;42.654;23.316;2024-03-02T05:58:30;61.17;;;34.78;;
29196;SDS011;62796;42.654;23.316;2024-03-02T06:01:14;56.85;;;32.58;;
29196;SDS011;62796;42.654;23.316;2024-03-02T06:03:39;64.22;;;34.28;;
29196;SDS011;62796;42.654;23.316;2024-03-02T06:06:05;56.78;;;32.05;;
29196;SDS011;62796;42.654;23.316;2024-03-02T06:08:30;61.70;;;35.38;;
29196;SDS011;62796;42.654;23.316;2024-03-02T06:10:56;68.35;;;35.53;;
29196;SDS011;62796;42.654;23.316;2024-03-02T06:13:22;64.65;;;35.83;;
29196;SDS011;62796;42.654;23.316;2024-03-02T06:15:48;61.70;;;34.40;;
29196;SDS011;62796;42.654;23.316;2024-03-02T06:18:13;60.58;;;33.17;;
29196;SDS011;62796;42.654;23.316;2024-03-02T06:20:39;57.80;;;33.30;;
29196;SDS011;62796;42.654;23.316;2024-03-02T06:23:04;58.33;;;33.05;;
29196;SDS011;62796;42.654;23.316;2024-03-02T06:25:30;58.00;;;34.08;;
29196;SDS011;62796;42.654;23.316;2024-03-02T06:27:55;58.28;;;33.22;;
29196;SDS011;62796;42.654;23.316;2024-03-02T06:30:21;54.83;;;31.35;;
29196;SDS011;62796;42.654;23.316;2024-03-02T06:32:46;55.08;;;30.30;;
29196;SDS011;62796;42.654;23.316;2024-03-02T06:35:12;46.20;;;26.38;;
29196;SDS011;62796;42.654;23.316;2024-03-02T06:37:38;42.25;;;22.98;;
29196;SDS011;62796;42.654;23.316;2024-03-02T06:40:04;39.53;;;21.20;;
29196;SDS011;62796;42.654;23.316;2024-03-02T06:42:32;40.28;;;23.10;;
29196;SDS011;62796;42.654;23.316;2024-03-02T06:44:58;42.42;;;24.25;;
29196;SDS011;62796;42.654;23.316;2024-03-02T06:47:24;43.80;;;24.60;;
29196;SDS011;62796;42.654;23.316;2024-03-02T06:49:49;41.47;;;23.05;;
29196;SDS011;62796;42.654;23.316;2024-03-02T06:52:15;36.88;;;22.08;;
29196;SDS011;62796;42.654;23.316;2024-03-02T06:54:41;41.20;;;24.60;;
29196;SDS011;62796;42.654;23.316;2024-03-02T06:57:07;41.92;;;22.95;;
29196;SDS011;62796;42.654;23.316;2024-03-02T06:59:32;44.40;;;24.92;;
29196;SDS011;62796;42.654;23.316;2024-03-02T07:01:58;43.83;;;23.63;;
29196;SDS011;62796;42.654;23.316;2024-03-02T07:04:24;44.80;;;24.30;;
29196;SDS011;62796;42.654;23.316;2024-03-02T07:06:49;52.25;;;28.05;;
29196;SDS011;62796;42.654;23.316;2024-03-02T07:09:16;41.60;;;23.48;;
29196;SDS011;62796;42.654;23.316;2024-03-02T07:11:41;42.83;;;24.85;;
29196;SDS011;62796;42.654;23.316;2024-03-02T07:14:07;43.17;;;23.70;;
29196;SDS011;62796;42.654;23.316;2024-03-02T07:16:32;43.05;;;23.27;;
29196;SDS011;62796;42.654;23.316;2024-03-02T07:18:59;45.88;;;24.48;;
29196;SDS011;62796;42.654;23.316;2024-03-02T07:21:26;45.92;;;23.83;;
29196;SDS011;62796;42.654;23.316;2024-03-02T07:23:52;42.50;;;23.27;;
29196;SDS011;62796;42.654;23.316;2024-03-02T07:26:18;39.95;;;21.98;;
29196;SDS011;62796;42.654;23.316;2024-03-02T07:28:45;45.50;;;26.15;;
29196;SDS011;62796;42.654;23.316;2024-03-02T07:31:11;44.85;;;27.40;;
29196;SDS011;62796;42.654;23.316;2024-03-02T07:33:36;43.30;;;25.38;;
29196;SDS011;62796;42.654;23.316;2024-03-02T07:36:02;51.80;;;30.08;;
29196;SDS011;62796;42.654;23.316;2024-03-02T07:38:28;44.80;;;24.45;;
29196;SDS011;62796;42.654;23.316;2024-03-02T07:40:54;42.95;;;24.20;;
29196;SDS011;62796;42.654;23.316;2024-03-02T07:43:20;45.70;;;26.27;;
29196;SDS011;62796;42.654;23.316;2024-03-02T07:45:47;47.67;;;25.75;;
29196;SDS011;62796;42.654;23.316;2024-03-02T07:48:13;40.55;;;23.20;;
29196;SDS011;62796;42.654;23.316;2024-03-02T07:50:39;41.80;;;22.85;;
29196;SDS011;62796;42.654;23.316;2024-03-02T07:53:05;41.13;;;23.48;;
29196;SDS011;62796;42.654;23.316;2024-03-02T07:55:31;44.05;;;23.27;;
29196;SDS011;62796;42.654;23.316;2024-03-02T07:57:57;44.55;;;24.52;;
29196;SDS011;62796;42.654;23.316;2024-03-02T08:00:22;43.00;;;25.08;;
29196;SDS011;62796;42.654;23.316;2024-03-02T08:02:48;49.40;;;28.02;;
29196;SDS011;62796;42.654;23.316;2024-03-02T08:05:16;53.30;;;28.90;;
29196;SDS011;62796;42.654;23.316;2024-03-02T08:07:43;49.97;;;27.33;;
29196;SDS011;62796;42.654;23.316;2024-03-02T08:10:09;50.75;;;29.77;;
29196;SDS011;62796;42.654;23.316;2024-03-02T08:12:35;50.13;;;27.95;;
29196;SDS011;62796;42.654;23.316;2024-03-02T08:15:00;56.47;;;30.05;;
29196;SDS011;62796;42.654;23.316;2024-03-02T08:17:26;56.38;;;29.65;;
29196;SDS011;62796;42.654;23.316;2024-03-02T08:19:51;51.28;;;26.90;;
29196;SDS011;62796;42.654;23.316;2024-03-02T08:22:17;54.10;;;27.23;;
29196;SDS011;62796;42.654;23.316;2024-03-02T08:24:43;51.53;;;28.08;;
29196;SDS011;62796;42.654;23.316;2024-03-02T08:27:08;49.15;;;27.52;;
29196;SDS011;62796;42.654;23.316;2024-03-02T08:29:34;50.88;;;27.40;;
29196;SDS011;62796;42.654;23.316;2024-03-02T08:32:00;50.15;;;28.05;;
29196;SDS011;62796;42.654;23.316;2024-03-02T08:34:25;53.08;;;27.40;;
29196;SDS011;62796;42.654;23.316;2024-03-02T08:36:51;52.97;;;27.48;;
29196;SDS011;62796;42.654;23.316;2024-03-02T08:39:16;44.67;;;24.55;;
29196;SDS011;62796;42.654;23.316;2024-03-02T08:41:44;45.00;;;26.33;;
29196;SDS011;62796;42.654;23.316;2024-03-02T08:44:10;86.93;;;47.08;;
29196;SDS011;62796;42.654;23.316;2024-03-02T08:46:37;47.85;;;26.67;;
29196;SDS011;62796;42.654;23.316;2024-03-02T08:49:04;42.38;;;24.92;;
29196;SDS011;62796;42.654;23.316;2024-03-02T08:51:29;44.47;;;24.85;;
29196;SDS011;62796;42.654;23.316;2024-03-02T08:53:55;43.25;;;23.88;;
29196;SDS011;62796;42.654;23.316;2024-03-02T08:56:21;42.40;;;22.08;;
29196;SDS011;62796;42.654;23.316;2024-03-02T08:58:48;39.38;;;23.20;;
29196;SDS011;62796;42.654;23.316;2024-03-02T09:01:14;40.10;;;23.80;;
29196;SDS011;62796;42.654;23.316;2024-03-02T09:03:41;46.10;;;25.05;;
29196;SDS011;62796;42.654;23.316;2024-03-02T09:06:09;40.30;;;22.98;;
29196;SDS011;62796;42.654;23.316;2024-03-02T09:08:35;36.72;;;21.30;;
29196;SDS011;62796;42.654;23.316;2024-03-02T09:11:01;42.80;;;22.70;;
29196;SDS011;62796;42.654;23.316;2024-03-02T09:13:28;40.05;;;21.95;;
29196;SDS011;62796;42.654;23.316;2024-03-02T09:15:54;39.65;;;22.23;;
29196;SDS011;62796;42.654;23.316;2024-03-02T09:18:19;37.03;;;21.42;;
29196;SDS011;62796;42.654;23.316;2024-03-02T09:20:45;38.53;;;21.15;;
29196;SDS011;62796;42.654;23.316;2024-03-02T09:23:11;38.92;;;22.27;;
29196;SDS011;62796;42.654;23.316;2024-03-02T09:25:36;42.00;;;23.05;;
29196;SDS011;62796;42.654;23.316;2024-03-02T09:28:02;40.38;;;22.23;;
29196;SDS011;62796;42.654;23.316;2024-03-02T09:30:28;37.60;;;21.40;;
29196;SDS011;62796;42.654;23.316;2024-03-02T09:32:53;38.88;;;20.85;;
29196;SDS011;62796;42.654;23.316;2024-03-02T09:35:19;38.15;;;21.35;;
29196;SDS011;62796;42.654;23.316;2024-03-02T09:37:44;39.50;;;21.50;;
29196;SDS011;62796;42.654;23.316;2024-03-02T09:40:10;37.72;;;21.52;;
29196;SDS011;62796;42.654;23.316;2024-03-02T09:42:36;35.95;;;20.73;;
29196;SDS011;62796;42.654;23.316;2024-03-02T09:45:02;35.17;;;19.60;;
29196;SDS011;62796;42.654;23.316;2024-03-02T09:47:28;34.75;;;20.15;;
29196;SDS011;62796;42.654;23.316;2024-03-02T09:49:53;40.50;;;21.63;;
29196;SDS011;62796;42.654;23.316;2024-03-02T09:52:20;37.38;;;21.13;;
29196;SDS011;62796;42.654;23.316;2024-03-02T09:54:47;39.33;;;20.67;;
29196;SDS011;62796;42.654;23.316;2024-03-02T09:57:13;39.88;;;22.23;;
29196;SDS011;62796;42.654;23.316;2024-03-02T09:59:39;44.80;;;23.65;;
29196;SDS011;62796;42.654;23.316;2024-03-02T10:02:05;47.50;;;24.65;;
29196;SDS011;62796;42.654;23.316;2024-03-02T10:04:32;39.88;;;22.80;;
29196;SDS011;62796;42.654;23.316;2024-03-02T10:07:10;38.38;;;22.90;;
29196;SDS011;62796;42.654;23.316;2024-03-02T10:09:36;45.80;;;24.02;;
29196;SDS011;62796;42.654;23.316;2024-03-02T10:12:06;40.47;;;22.17;;
29196;SDS011;62796;42.654;23.316;2024-03-02T10:14:33;46.83;;;22.98;;
29196;SDS011;62796;42.654;23.316;2024-03-02T10:17:01;48.17;;;24.30;;
29196;SDS011;62796;42.654;23.316;2024-03-02T10:19:37;43.78;;;24.45;;
29196;SDS011;62796;42.654;23.316;2024-03-02T10:22:04;48.25;;;25.35;;
29196;SDS011;62796;42.654;23.316;2024-03-02T10:24:37;45.75;;;24.95;;
29196;SDS011;62796;42.654;23.316;2024-03-02T10:27:26;45.67;;;24.15;;
29196;SDS011;62796;42.654;23.316;2024-03-02T10:29:52;39.13;;;22.83;;
29196;SDS011;62796;42.654;23.316;2024-03-02T10:32:18;41.55;;;23.35;;
29196;SDS011;62796;42.654;23.316;2024-03-02T10:34:47;42.90;;;22.90;;
29196;SDS011;62796;42.654;23.316;2024-03-02T10:37:13;44.45;;;24.00;;
29196;SDS011;62796;42.654;23.316;2024-03-02T10:39:39;39.90;;;22.88;;
29196;SDS011;62796;42.654;23.316;2024-03-02T10:42:06;41.13;;;23.77;;
29196;SDS011;62796;42.654;23.316;2024-03-02T10:44:44;41.25;;;23.90;;
29196;SDS011;62796;42.654;23.316;2024-03-02T10:47:10;40.75;;;23.50;;
29196;SDS011;62796;42.654;23.316;2024-03-02T10:49:37;45.22;;;24.05;;
29196;SDS011;62796;42.654;23.316;2024-03-02T10:52:03;41.42;;;23.23;;
29196;SDS011;62796;42.654;23.316;2024-03-02T10:54:29;44.80;;;24.00;;
29196;SDS011;62796;42.654;23.316;2024-03-02T10:57:00;40.97;;;22.35;;
29196;SDS011;62796;42.654;23.316;2024-03-02T10:59:28;43.50;;;24.40;;
29196;SDS011;62796;42.654;23.316;2024-03-02T11:01:59;45.67;;;26.40;;
29196;SDS011;62796;42.654;23.316;2024-03-02T11:04:26;41.70;;;22.35;;
29196;SDS011;62796;42.654;23.316;2024-03-02T11:07:02;45.30;;;24.52;;
29196;SDS011;62796;42.654;23.316;2024-03-02T11:09:31;44.10;;;23.88;;
29196;SDS011;62796;42.654;23.316;2024-03-02T11:14:24;39.65;;;21.73;;
29196;SDS011;62796;42.654;23.316;2024-03-02T11:16:50;34.58;;;20.00;;
29196;SDS011;62796;42.654;23.316;2024-03-02T11:19:17;37.42;;;21.25;;
29196;SDS011;62796;42.654;23.316;2024-03-02T11:21:43;39.28;;;22.30;;
29196;SDS011;62796;42.654;23.316;2024-03-02T11:26:52;36.38;;;22.05;;
29196;SDS011;62796;42.654;23.316;2024-03-02T11:32:02;39.55;;;22.45;;
29196;SDS011;62796;42.654;23.316;2024-03-02T11:34:30;37.60;;;21.15;;
29196;SDS011;62796;42.654;23.316;2024-03-02T11:36:56;37.47;;;21.13;;
29196;SDS011;62796;42.654;23.316;2024-03-02T11:39:28;37.53;;;20.77;;
29196;SDS011;62796;42.654;23.316;2024-03-02T11:41:57;35.15;;;20.38;;
29196;SDS011;62796;42.654;23.316;2024-03-02T11:44:26;39.67;;;22.05;;
29196;SDS011;62796;42.654;23.316;2024-03-02T11:46:58;52.50;;;29.23;;
29196;SDS011;62796;42.654;23.316;2024-03-02T11:52:06;42.60;;;21.80;;
29196;SDS011;62796;42.654;23.316;2024-03-02T11:54:34;41.65;;;23.02;;
29196;SDS011;62796;42.654;23.316;2024-03-02T11:57:04;40.13;;;22.88;;
29196;SDS011;62796;42.654;23.316;2024-03-02T11:59:30;37.90;;;21.52;;
29196;SDS011;62796;42.654;23.316;2024-03-02T12:01:56;35.75;;;19.83;;
29196;SDS011;62796;42.654;23.316;2024-03-02T12:04:23;36.60;;;21.67;;
29196;SDS011;62796;42.654;23.316;2024-03-02T12:06:58;42.20;;;22.52;;
29196;SDS011;62796;42.654;23.316;2024-03-02T12:09:28;38.65;;;21.70;;
29196;SDS011;62796;42.654;23.316;2024-03-02T12:12:03;40.83;;;22.30;;
29196;SDS011;62796;42.654;23.316;2024-03-02T12:14:49;39.42;;;23.20;;
29196;SDS011;62796;42.654;23.316;2024-03-02T12:17:21;39.63;;;22.88;;
29196;SDS011;62796;42.654;23.316;2024-03-02T12:19:47;36.40;;;22.30;;
29196;SDS011;62796;42.654;23.316;2024-03-02T12:22:13;38.55;;;22.50;;
29196;SDS011;62796;42.654;23.316;2024-03-02T12:24:40;40.83;;;23.17;;
29196;SDS011;62796;42.654;23.316;2024-03-02T12:27:06;37.55;;;22.15;;
29196;SDS011;62796;42.654;23.316;2024-03-02T12:29:32;39.45;;;23.30;;
29196;SDS011;62796;42.654;23.316;2024-03-02T12:31:57;39.60;;;23.63;;
29196;SDS011;62796;42.654;23.316;2024-03-02T12:34:24;34.33;;;20.95;;
29196;SDS011;62796;42.654;23.316;2024-03-02T12:36:51;34.50;;;20.58;;
29196;SDS011;62796;42.654;23.316;2024-03-02T12:39:21;35.63;;;20.70;;
29196;SDS011;62796;42.654;23.316;2024-03-02T12:41:49;34.15;;;20.48;;
29196;SDS011;62796;42.654;23.316;2024-03-02T12:44:16;36.92;;;21.13;;
29196;SDS011;62796;42.654;23.316;2024-03-02T12:46:42;38.13;;;22.30;;
29196;SDS011;62796;42.654;23.316;2024-03-02T12:49:08;39.08;;;21.98;;
29196;SDS011;62796;42.654;23.316;2024-03-02T12:51:36;36.15;;;21.38;;
29196;SDS011;62796;42.654;23.316;2024-03-02T12:54:02;36.65;;;21.67;;
29196;SDS011;62796;42.654;23.316;2024-03-02T12:56:28;33.28;;;21.50;;
29196;SDS011;62796;42.654;23.316;2024-03-02T12:58:54;37.15;;;22.48;;
29196;SDS011;62796;42.654;23.316;2024-03-02T13:01:20;36.53;;;22.83;;
29196;SDS011;62796;42.654;23.316;2024-03-02T13:03:49;33.70;;;20.60;;
29196;SDS011;62796;42.654;23.316;2024-03-02T13:06:16;35.13;;;21.15;;
29196;SDS011;62796;42.654;23.316;2024-03-02T13:08:42;40.83;;;22.67;;
29196;SDS011;62796;42.654;23.316;2024-03-02T13:11:08;36.40;;;21.27;;
29196;SDS011;62796;42.654;23.316;2024-03-02T13:13:34;33.53;;;21.55;;
29196;SDS011;62796;42.654;23.316;2024-03-02T13:16:00;36.20;;;20.95;;
29196;SDS011;62796;42.654;23.316;2024-03-02T13:18:26;33.13;;;21.45;;
29196;SDS011;62796;42.654;23.316;2024-03-02T13:20:52;35.33;;;21.52;;
29196;SDS011;62796;42.654;23.316;2024-03-02T13:23:17;42.85;;;23.02;;
29196;SDS011;62796;42.654;23.316;2024-03-02T13:25:42;40.38;;;24.30;;
29196;SDS011;62796;42.654;23.316;2024-03-02T13:28:08;38.72;;;23.08;;
29196;SDS011;62796;42.654;23.316;2024-03-02T13:30:34;39.63;;;23.30;;
29196;SDS011;62796;42.654;23.316;2024-03-02T13:32:59;38.55;;;23.80;;
29196;SDS011;62796;42.654;23.316;2024-03-02T13:35:24;35.42;;;22.27;;
29196;SDS011;62796;42.654;23.316;2024-03-02T13:37:50;39.95;;;23.70;;
29196;SDS011;62796;42.654;23.316;2024-03-02T13:40:16;34.92;;;22.13;;
29196;SDS011;62796;42.654;23.316;2024-03-02T13:42:45;34.78;;;21.20;;
29196;SDS011;62796;42.654;23.316;2024-03-02T13:45:12;38.83;;;23.35;;
29196;SDS011;62796;42.654;23.316;2024-03-02T13:47:38;34.15;;;22.15;;
29196;SDS011;62796;42.654;23.316;2024-03-02T13:50:04;33.33;;;21.63;;
29196;SDS011;62796;42.654;23.316;2024-03-02T13:52:30;36.38;;;21.63;;
29196;SDS011;62796;42.654;23.316;2024-03-02T13:54:56;40.40;;;24.42;;
29196;SDS011;62796;42.654;23.316;2024-03-02T13:57:21;38.72;;;22.25;;
29196;SDS011;62796;42.654;23.316;2024-03-02T13:59:47;37.72;;;23.48;;
29196;SDS011;62796;42.654;23.316;2024-03-02T14:02:12;35.97;;;22.63;;
29196;SDS011;62796;42.654;23.316;2024-03-02T14:04:38;34.63;;;21.67;;
29196;SDS011;62796;42.654;23.316;2024-03-02T14:07:04;33.10;;;21.67;;
29196;SDS011;62796;42.654;23.316;2024-03-02T14:09:33;34.95;;;22.17;;
29196;SDS011;62796;42.654;23.316;2024-03-02T14:11:59;36.65;;;22.02;;
29196;SDS011;62796;42.654;23.316;2024-03-02T14:14:27;33.78;;;20.98;;
29196;SDS011;62796;42.654;23.316;2024-03-02T14:16:53;34.70;;;21.58;;
29196;SDS011;62796;42.654;23.316;2024-03-02T14:19:20;39.00;;;22.48;;